• Join FlightAware (Why Join?)
  • Login
  • US Flag 
12:36PM EDT


 

Airport Tracker/Info


-or-


 

Live Flight TrackerFlight Track Log ✈ ASQ6073 ✈ 09-May-2013 ✈ KSAF - KDEN

Flight Track Log - Related Links

Times and Time Zones

All times are in EDT time to prevent confusion due to time zone crossing. See the ASQ6073 flight status page for this flight to view local times or setup timezone preferences in your user account.

Time Position Orientation Groundspeed Altitude Reporting Facility
EDT Latitude Longitude Course Direction KTS MPH feet Rate Location/Type
09:30AM 35.6628 -106.0503 333° Northwest 180 207 8,600  Level Albuquerque Center
09:31AM 35.7239 -106.0353 11° North 206 237 11,200 2,280 Climbing Albuquerque Center
09:32AM 35.8200 -106.0214 North 255 293 13,300 1,680 Climbing Albuquerque Center
09:33AM 35.9178 -106.0197 North 333 383 14,700 1,620 Climbing Albuquerque Center
09:34AM 36.0086 -106.0800 332° Northwest 362 417 16,600 1,740 Climbing Albuquerque Center
09:35AM 36.0986 -106.1439 330° Northwest 373 429 18,300 1,740 Climbing Albuquerque Center
09:36AM 36.1614 -106.1870 333° Northwest  Level FlightAware Approximate
09:36AM 36.1864 -106.2053 331° Northwest 376 433 20,200  Level Albuquerque Center
09:37AM 36.2917 -106.2792 331° Northwest 386 444 22,400 1,980 Climbing Albuquerque Center
09:38AM 36.3803 -106.3417 330° Northwest 385 443 24,300 2,100 Climbing Albuquerque Center
09:39AM 36.4833 -106.4131 331° Northwest 380 437 26,800 1,800 Climbing Albuquerque Center
09:40AM 36.5706 -106.4736 331° Northwest 378 435 28,000 660 Climbing Albuquerque Center
09:41AM 36.6453 -106.5261 331° Northwest 385 443 28,000  Level Denver Center
09:42AM 36.7436 -106.5956 330° Northwest 410 472 28,100 1,080 Climbing Denver Center
09:43AM 36.8692 -106.6361 346° North 423 487 30,300 1,380 Climbing Denver Center
09:44AM 36.9822 -106.6042 13° North 433 498 31,000 300 Climbing Denver Center
09:45AM 37.1011 -106.5689 13° North 450 518 31,000  Level Denver Center
09:46AM 37.2383 -106.5269 14° North 455 524 31,000  Level Denver Center
09:47AM 37.3514 -106.4922 14° North 443 510 31,000  Level Denver Center
09:48AM 37.4814 -106.4528 14° North 430 495 31,000  Level Denver Center
09:49AM 37.5931 -106.4183 14° North 430 495 31,000  Level Denver Center
09:50AM 37.7017 -106.3850 14° North 423 487 31,000  Level Denver Center
09:51AM 37.8256 -106.3456 14° North 421 484 31,000  Level Denver Center
09:52AM 37.9361 -106.3131 13° North 422 486 31,000  Level Denver Center
09:53AM 38.0625 -106.2719 14° North 420 483 31,000  Level Denver Center
09:54AM 38.1522 -106.2097 29° Northeast 421 484 31,000  Level Denver Center
09:56AM 38.2528 -106.1292 32° Northeast 417 480 31,000  Level Denver Center
09:57AM 38.3594 -106.0433 32° Northeast 407 468 31,000  Level Denver Center
09:58AM 38.4500 -105.9697 32° Northeast 404 465 31,000  Level Denver Center
09:59AM 38.5542 -105.8847 33° Northeast 399 459 31,000  Level Denver Center
10:00AM 38.6456 -105.8097 33° Northeast 402 463 31,000 -240 Level Denver Center
10:01AM 38.7361 -105.7361 32° Northeast 402 463 30,600 -1,260 Descending Denver Center
10:02AM 38.8414 -105.6489 33° Northeast 403 464 28,500 -2,220 Descending Denver Center
10:03AM 38.9333 -105.5733 33° Northeast 405 466 26,200 -2,220 Descending Denver Center
10:04AM 39.0164 -105.5031 33° Northeast 391 450 24,000 -2,160 Descending Denver Center
10:05AM 39.1042 -105.4308 33° Northeast 343 395 21,800 -2,220 Descending Denver Center
10:06AM 39.1828 -105.3681 32° Northeast 325 374 19,600 -1,980 Descending Denver Center
10:07AM 39.2569 -105.2919 38° Northeast 345 397 17,800 -1,860 Descending Denver Center
10:08AM 39.2847 -105.1614 75° East 375 432 15,800 -1,680 Descending Denver Center
10:09AM 39.3097 -105.0236 77° East 368 423 14,400 -1,200 Descending Denver Center
10:10AM 39.3475 -104.9078 67° East 359 413 13,400 -1,140 Descending Denver Center
10:11AM 39.4094 -104.8172 48° Northeast 336 387 12,200 -1,320 Descending Denver Center
10:12AM 39.5014 -104.7567 27° Northeast 345 397 10,700 -1,260 Descending Denver Center
10:13AM 39.5775 -104.7039 28° Northeast 308 354 9,700 -900 Descending Denver Center
10:14AM 39.6428 -104.6617 26° Northeast 268 308 8,900 -1,080 Descending Denver Center
10:15AM 39.7217 -104.6619 360° North 265 305 7,500 -1,260 Descending Denver Center
10:16AM 39.7808 -104.6608 North 208 239 6,400 -960 Descending Denver Center
10:17AM 39.8319 -104.6600 North 151 174 5,400 -840 Descending Denver Center
10:19AM 39.8500 -104.6667 North  Level FlightAware Approximate
10:26AM 39.8617 -104.6732 North  Level Estimated
10:27AM 39.8617 -104.6732 North  Level Estimated